Vliegveldwaarnemingen Nederland - (AUTO) METAR

Luchtvaartmeteorologische informatie voor operationeel gebruik en vluchtvoorbereiding is beschikbaar op www.luchtvaartmeteo.nl.

ZCZC
SA061925 EHFS     VLISSINGEN AWS   NLD   8 m.
METAR EHFS 061925Z AUTO 32009KT 9999 NSC 16/11 Q1021=

ZCZC
SA061925 EHSG     BSA   NLD   43 m.
METAR EHSG 061925Z AUTO VRB02KT //// // NSC 15/11 Q1021 RE//=

ZCZC
SA061955 EHKD     DE KOOY/DE KOOY   NLD   1 m.
METAR EHKD 061955Z AUTO 29011KT 240V340 9999 FEW017 SCT020 BKN024
14/11 Q1019 REUP WHT=

ZCZC
SA061955 EHFD     F3-FB-1   NLD   50 m.
METAR EHFD 061955Z AUTO /////KT //// // FEW022/// SCT027/// BKN040///
13/07 Q1016 RE//=

ZCZC
SA061955 EHAM     AMSTERDAM/SCHIPHOL   NLD   -3 m.
METAR EHAM 061955Z 29009KT 250V320 9999 FEW023 14/09 Q1020 NOSIG=

ZCZC
SA061955 EHVL     VLIELAND   NLD   10 m.
METAR EHVL 061955Z AUTO 31015KT 9999 SCT022 SCT030 14/10 Q1019 WHT=

ZCZC
SA061955 EHJR     K13-A   NLD   37 m.
METAR EHJR 061955Z AUTO 31008KT //// // ///////// 14/10 Q1020 RE//
W///H18=

ZCZC
SA061955 EHLE     LELYSTAD/LELYSTAD   NLD   -3 m.
METAR EHLE 061955Z AUTO 29007KT 260V350 9999 FEW026 SCT030 14/10
Q1020 NOSIG=

ZCZC
SA061955 EHLW     LEEUWARDEN/LEEUWARDEN   NLD   1 m.
METAR EHLW 061955Z AUTO 30006KT 250V330 9999 SCT023 SCT027 BKN034
13/09 Q1019 WHT=

ZCZC
SA061955 EHDL     ARNHEM/DEELEN   NLD   48 m.
METAR EHDL 061955Z AUTO 28005KT 250V350 9999 FEW028 13/10 Q1020 BLU=

ZCZC
SA061955 EHGG     GRONINGEN/EELDE   NLD   5 m.
METAR EHGG 061955Z AUTO 29006KT 260V320 9999 NSC 13/10 Q1018 NOSIG=

ZCZC
SA061955 EHSC     LICHTEILAND GOEREE   NLD   22 m.
METAR EHSC 061955Z AUTO 31008KT 9999 ///////// 15/10 Q1021 W18/H12=

ZCZC
SA061955 EHSA     EURO PLATFORM   NLD   19 m.
METAR EHSA 061955Z AUTO 30007KT 9999 ///////// 15/09 Q1021 W15/H12=

ZCZC
SA061955 EHWO     WOENSDRECHT/WOENSDRECHT   NLD   19 m.
METAR EHWO 061955Z AUTO 30004KT 240V330 9999 BKN085 14/10 Q1021 BLU=

ZCZC
SA061955 EHRD     ROTTERDAM/THE HAGUE AIRPORT   NLD   -5 m.
METAR EHRD 061955Z AUTO 28005KT 240V320 9999 FEW025 13/10 Q1021
NOSIG=

ZCZC
SA061955 EHGR     GILZE-RIJEN/GILZE-RIJEN   NLD   14 m.
METAR EHGR 061955Z AUTO 30006KT 260V320 9999 OVC083 15/10 Q1021 BLU=

ZCZC
SA061955 EHEH     EINDHOVEN/EINDHOVEN   NLD   22 m.
METAR EHEH 061955Z AUTO 26005KT 230V300 9999 FEW086 14/10 Q1021
BLU 27005KT 9999 SCT040 BKN050=

ZCZC
SA061955 EHVK     VOLKEL/VOLKEL   NLD   21 m.
METAR EHVK 061955Z AUTO 30003KT 270V360 9999 FEW026 14/11 Q1020 BLU=

ZCZC
SA061955 EHBK     MAASTRICHT/MAASTRICHT-AACHEN   NLD   114 m.
METAR EHBK 061955Z AUTO 29003KT 250V340 9999 NSC 14/09 Q1021 NOSIG=

ZCZC
SA061955 EHFZ     F16-A   NLD   43 m.
METAR EHFZ 061955Z AUTO 30022KT 9999 FEW020 SCT024 BKN030 14/08
Q1018=

ZCZC
SA061955 EHKV     K14-FA-1C   NLD   41 m.
METAR EHKV 061955Z AUTO ///10KT 9999 NCD 14/09 Q1020=

ZCZC
SA061955 EHMG     L9-FF-1   NLD   44 m.
METAR EHMG 061955Z AUTO 30021KT 9999 FEW022 14/09 Q1019=

ZCZC
SA061955 EHMA     AWG-1   NLD   40 m.
METAR EHMA 061955Z AUTO 30022KT 9999 FEW023 14/09 Q1018=

ZCZC
SA061955 EHDV     D15-FA-1   NLD   42 m.
METAR EHDV 061955Z AUTO 30017KT 9999 FEW023/// SCT026/// 14/08 Q1019=

ZCZC
SA061955 EHAK     A12-CPP   NLD   48 m.
METAR EHAK 061955Z AUTO 34024KT 300V010 //// // FEW020/// 13/06 Q1016
RE//=

ZCZC
SA061955 EHQE     HOORN-A   NLD   50 m.
METAR EHQE 061955Z AUTO 28014KT 9999 FEW016 SCT020 14/10 Q1020=

ZCZC
SA061955 EHJA     J6-A   NLD   45 m.
METAR EHJA 061955Z AUTO 27012KT 9999 NCD 13/10 Q1019=

ZCZC
SA061955 EHPG     P11-B   NLD   41 m.
METAR EHPG 061955Z AUTO 29007KT 210V340 9999 NCD 15/10 Q1021=

ZCZC
SA061955 EHHW     BUITENGAATS/BG-OHVS2      42 m.
METAR EHHW 061955Z AUTO 32020KT 9999 SCT022/// SCT028/// 14/08 Q1017=

06/07/2020 22.00 uur LT